createdAt,value
2023-04-29T00:00:38.395Z,0.00
2023-04-29T00:01:38.371Z,0.00
2023-04-29T00:02:38.497Z,0.00
2023-04-29T00:03:38.487Z,0.00
2023-04-29T00:04:38.604Z,0.00
2023-04-29T00:05:38.526Z,0.00
2023-04-29T00:06:38.318Z,0.00
2023-04-29T00:07:38.325Z,0.00
2023-04-29T00:08:38.328Z,0.00
2023-04-29T00:09:38.304Z,0.00
2023-04-29T00:10:38.274Z,0.00
2023-04-29T00:11:38.263Z,0.00
2023-04-29T00:12:38.251Z,0.00
2023-04-29T00:13:38.245Z,0.00
2023-04-29T00:14:38.244Z,0.00
2023-04-29T00:15:38.280Z,0.00
2023-04-29T00:16:38.283Z,0.00
2023-04-29T00:17:38.219Z,0.00
2023-04-29T00:18:38.190Z,0.00
2023-04-29T00:19:38.175Z,0.00
2023-04-29T00:20:38.186Z,0.00
2023-04-29T00:21:38.162Z,0.00
2023-04-29T00:22:38.142Z,0.00
2023-04-29T00:23:38.152Z,0.00
2023-04-29T00:24:38.136Z,0.00
2023-04-29T00:25:38.105Z,0.00
2023-04-29T00:26:38.120Z,0.00
2023-04-29T00:27:38.085Z,0.00
2023-04-29T00:28:38.077Z,0.00
2023-04-29T00:29:38.061Z,0.00
2023-04-29T00:30:38.157Z,0.00
2023-04-29T00:31:38.286Z,0.00
2023-04-29T00:32:38.093Z,0.00
2023-04-29T00:33:38.019Z,0.00
2023-04-29T00:34:38.031Z,0.00
2023-04-29T00:35:38.013Z,0.00
2023-04-29T00:36:37.996Z,0.00
2023-04-29T00:37:37.984Z,0.00
2023-04-29T00:38:37.982Z,0.00
2023-04-29T00:39:37.972Z,0.00
2023-04-29T00:40:37.957Z,0.00
2023-04-29T00:41:37.930Z,0.00
2023-04-29T00:42:37.925Z,0.00
2023-04-29T00:43:37.908Z,0.00
2023-04-29T00:44:37.917Z,0.00
2023-04-29T00:45:37.897Z,0.00
2023-04-29T00:46:37.927Z,0.00
2023-04-29T00:47:37.911Z,0.00
2023-04-29T00:48:37.881Z,0.00
2023-04-29T00:49:37.841Z,0.00
2023-04-29T00:50:37.876Z,0.00
2023-04-29T00:51:37.817Z,0.00
2023-04-29T00:52:37.821Z,0.00
2023-04-29T00:53:37.799Z,0.00
2023-04-29T00:54:37.792Z,0.00
2023-04-29T00:55:37.796Z,0.00
2023-04-29T00:56:37.802Z,0.00
2023-04-29T00:57:37.755Z,0.00
2023-04-29T00:58:37.761Z,0.00
2023-04-29T00:59:37.742Z,0.00
2023-04-29T01:00:37.741Z,0.00
2023-04-29T01:01:37.741Z,0.00
2023-04-29T01:02:37.924Z,0.00
2023-04-29T01:03:37.883Z,0.00
2023-04-29T01:04:37.707Z,0.00
2023-04-29T01:05:37.680Z,0.00
2023-04-29T01:06:37.674Z,0.00
2023-04-29T01:07:37.668Z,0.00
2023-04-29T01:08:37.654Z,0.00
2023-04-29T01:09:37.626Z,0.00
2023-04-29T01:10:37.623Z,0.00
2023-04-29T01:11:37.646Z,0.00
2023-04-29T01:12:37.604Z,0.00
2023-04-29T01:13:37.583Z,0.00
2023-04-29T01:14:37.590Z,0.00
2023-04-29T01:15:37.581Z,0.00
2023-04-29T01:16:37.649Z,0.00
2023-04-29T01:17:37.635Z,0.00
2023-04-29T01:18:37.532Z,0.00
2023-04-29T01:19:37.522Z,0.00
2023-04-29T01:20:37.552Z,0.00
2023-04-29T01:21:37.505Z,0.00
2023-04-29T01:22:37.486Z,0.00
2023-04-29T01:23:37.499Z,0.00
2023-04-29T01:24:37.465Z,0.00
2023-04-29T01:25:37.450Z,0.00
2023-04-29T01:26:37.465Z,0.00
2023-04-29T01:27:37.461Z,0.00
2023-04-29T01:28:37.418Z,0.00
2023-04-29T01:29:37.418Z,0.00
2023-04-29T01:30:37.398Z,0.00
2023-04-29T01:31:37.426Z,0.00
2023-04-29T01:32:37.407Z,0.00
2023-04-29T01:33:37.364Z,0.00
2023-04-29T01:34:37.370Z,0.00
2023-04-29T01:35:37.339Z,0.00
2023-04-29T01:36:37.331Z,0.00
2023-04-29T01:37:37.318Z,0.00
2023-04-29T01:38:37.340Z,0.00
2023-04-29T01:39:37.332Z,0.00
2023-04-29T01:40:37.290Z,0.00
2023-04-29T01:41:37.273Z,0.00
2023-04-29T01:42:37.267Z,0.00
2023-04-29T01:43:37.280Z,0.00
2023-04-29T01:44:37.270Z,0.00
2023-04-29T01:45:37.255Z,0.00
2023-04-29T01:46:37.277Z,0.00
2023-04-29T01:47:37.234Z,0.00
2023-04-29T01:48:37.207Z,0.00
2023-04-29T01:49:37.207Z,0.00
2023-04-29T01:50:37.232Z,0.00
2023-04-29T01:51:37.172Z,0.00
2023-04-29T01:52:37.202Z,0.00
2023-04-29T01:53:37.150Z,0.00
2023-04-29T01:54:37.153Z,0.00
2023-04-29T01:55:37.137Z,0.00
2023-04-29T01:56:37.149Z,0.00
2023-04-29T01:57:37.121Z,0.00
2023-04-29T01:58:37.098Z,0.00
2023-04-29T01:59:37.124Z,0.00
2023-04-29T02:00:37.120Z,0.00
2023-04-29T02:01:37.059Z,0.00
2023-04-29T02:02:37.150Z,0.00
2023-04-29T02:03:37.206Z,0.00
2023-04-29T02:04:37.117Z,0.00
2023-04-29T02:05:37.018Z,0.00
2023-04-29T02:06:37.073Z,0.00
2023-04-29T02:07:36.989Z,0.00
2023-04-29T02:08:37.015Z,0.00
2023-04-29T02:09:36.969Z,0.00
2023-04-29T02:10:36.966Z,0.00
2023-04-29T02:11:36.960Z,0.00
2023-04-29T02:12:36.952Z,0.00
2023-04-29T02:13:36.927Z,0.00
2023-04-29T02:14:37.965Z,0.00
2023-04-29T02:15:36.930Z,0.00
2023-04-29T02:16:36.929Z,0.00
2023-04-29T02:17:36.912Z,0.00
2023-04-29T02:18:36.894Z,0.00
2023-04-29T02:19:36.891Z,0.00
2023-04-29T02:20:36.875Z,0.00
2023-04-29T02:21:36.846Z,0.00
2023-04-29T02:22:36.838Z,0.00
2023-04-29T02:23:36.833Z,0.00
2023-04-29T02:24:36.824Z,0.00
2023-04-29T02:25:36.811Z,0.00
2023-04-29T02:26:36.844Z,0.00
2023-04-29T02:27:36.778Z,0.00
2023-04-29T02:28:36.774Z,0.00
2023-04-29T02:29:36.757Z,0.00
2023-04-29T02:30:36.751Z,0.00
2023-04-29T02:31:36.791Z,0.00
2023-04-29T02:32:36.779Z,0.00
2023-04-29T02:33:36.748Z,0.00
2023-04-29T02:34:36.705Z,0.00
2023-04-29T02:35:36.689Z,0.00
2023-04-29T02:36:36.688Z,0.00
2023-04-29T02:37:36.672Z,0.00
2023-04-29T02:38:36.679Z,0.00
2023-04-29T02:39:36.659Z,0.00
2023-04-29T02:40:36.642Z,0.00
2023-04-29T02:41:36.635Z,0.00
2023-04-29T02:42:36.630Z,0.00
2023-04-29T02:43:36.634Z,0.00
2023-04-29T02:44:36.624Z,0.00
2023-04-29T02:45:36.621Z,0.00
2023-04-29T02:46:36.577Z,0.00
2023-04-29T02:47:36.587Z,0.00
2023-04-29T02:48:36.554Z,0.00
2023-04-29T02:49:36.556Z,0.00
2023-04-29T02:50:36.549Z,0.00
2023-04-29T02:51:36.549Z,0.00
2023-04-29T02:52:36.512Z,0.00
2023-04-29T02:53:36.499Z,0.00
2023-04-29T02:54:36.498Z,0.00
2023-04-29T02:55:36.484Z,0.00
2023-04-29T02:56:36.480Z,0.00
2023-04-29T02:57:36.494Z,0.00
2023-04-29T02:58:36.446Z,0.00
2023-04-29T02:59:36.437Z,0.00
2023-04-29T03:00:36.443Z,0.00
2023-04-29T03:01:36.444Z,0.00
2023-04-29T03:02:36.556Z,0.00
2023-04-29T03:03:36.530Z,0.00
2023-04-29T03:04:36.392Z,0.00
2023-04-29T03:05:36.371Z,0.00
2023-04-29T03:06:36.369Z,0.00
2023-04-29T03:07:36.350Z,0.00
2023-04-29T03:08:36.360Z,0.00
2023-04-29T03:09:36.325Z,0.00
2023-04-29T03:10:36.315Z,0.00
2023-04-29T03:11:36.314Z,0.00
2023-04-29T03:12:36.297Z,0.00
2023-04-29T03:13:36.279Z,0.00
2023-04-29T03:14:36.295Z,0.00
2023-04-29T03:15:36.261Z,0.00
2023-04-29T03:16:36.327Z,0.00
2023-04-29T03:17:36.254Z,0.00
2023-04-29T03:18:36.239Z,0.00
2023-04-29T03:19:36.302Z,0.00
2023-04-29T03:20:36.222Z,0.00
2023-04-29T03:21:36.194Z,0.00
2023-04-29T03:22:36.196Z,0.00
2023-04-29T03:23:36.165Z,0.00
2023-04-29T03:24:36.163Z,0.00
2023-04-29T03:25:36.152Z,0.00
2023-04-29T03:26:36.164Z,0.00
2023-04-29T03:27:36.137Z,0.00
2023-04-29T03:28:36.114Z,0.00
2023-04-29T03:29:36.121Z,0.00
2023-04-29T03:30:36.101Z,0.00
2023-04-29T03:31:36.120Z,0.00
2023-04-29T03:32:36.129Z,0.00
2023-04-29T03:33:36.076Z,0.00
2023-04-29T03:34:36.075Z,0.00
2023-04-29T03:35:36.052Z,0.00
2023-04-29T03:36:36.030Z,0.00
2023-04-29T03:37:36.061Z,0.00
2023-04-29T03:38:36.035Z,0.00
2023-04-29T03:39:36.018Z,0.00
2023-04-29T03:40:35.985Z,0.00
2023-04-29T03:41:35.980Z,4.00
2023-04-29T03:42:35.966Z,4.00
2023-04-29T03:43:35.964Z,4.00
2023-04-29T03:44:35.973Z,4.00
2023-04-29T03:45:35.941Z,4.00
2023-04-29T03:46:36.095Z,8.00
2023-04-29T03:47:35.937Z,8.00
2023-04-29T03:48:35.906Z,8.00
2023-04-29T03:49:35.894Z,8.00
2023-04-29T03:50:35.912Z,8.00
2023-04-29T03:51:35.876Z,16.00
2023-04-29T03:52:35.852Z,12.00
2023-04-29T03:53:35.840Z,20.00
2023-04-29T03:54:35.838Z,24.00
2023-04-29T03:55:35.827Z,28.00
2023-04-29T03:56:35.823Z,28.00
2023-04-29T03:57:35.801Z,32.00
2023-04-29T03:58:35.796Z,36.00
2023-04-29T03:59:35.773Z,44.00
2023-04-29T04:00:35.766Z,48.00
2023-04-29T04:01:35.800Z,52.00
2023-04-29T04:02:35.824Z,60.00
2023-04-29T04:03:35.918Z,64.00
2023-04-29T04:04:35.940Z,72.00
2023-04-29T04:05:35.722Z,80.00
2023-04-29T04:06:35.700Z,88.00
2023-04-29T04:07:35.704Z,96.00
2023-04-29T04:08:35.690Z,104.00
2023-04-29T04:09:35.668Z,116.00
2023-04-29T04:10:35.680Z,128.00
2023-04-29T04:11:35.651Z,140.00
2023-04-29T04:12:35.636Z,148.00
2023-04-29T04:13:35.624Z,160.00
2023-04-29T04:14:35.633Z,176.00
2023-04-29T04:15:35.601Z,196.00
2023-04-29T04:16:35.659Z,212.00
2023-04-29T04:17:35.613Z,232.00
2023-04-29T04:18:35.563Z,252.00
2023-04-29T04:19:35.556Z,272.00
2023-04-29T04:20:35.556Z,296.00
2023-04-29T04:21:35.537Z,316.00
2023-04-29T04:22:35.527Z,344.00
2023-04-29T04:23:35.543Z,368.00
2023-04-29T04:24:35.509Z,384.00
2023-04-29T04:25:35.490Z,396.00
2023-04-29T04:26:35.498Z,404.00
2023-04-29T04:27:35.468Z,416.00
2023-04-29T04:28:35.456Z,432.00
2023-04-29T04:29:35.461Z,460.00
2023-04-29T04:30:35.434Z,508.00
2023-04-29T04:31:35.441Z,576.00
2023-04-29T04:32:35.474Z,652.00
2023-04-29T04:33:35.406Z,728.00
2023-04-29T04:34:35.399Z,772.00
2023-04-29T04:35:35.404Z,796.00
2023-04-29T04:36:35.379Z,828.00
2023-04-29T04:37:35.363Z,880.00
2023-04-29T04:38:35.382Z,948.00
2023-04-29T04:39:35.392Z,996.00
2023-04-29T04:40:35.342Z,1012.00
2023-04-29T04:41:35.323Z,1008.00
2023-04-29T04:42:35.309Z,1016.00
2023-04-29T04:43:35.298Z,1036.00
2023-04-29T04:44:35.305Z,1048.00
2023-04-29T04:45:35.298Z,1056.00
2023-04-29T04:46:35.282Z,1056.00
2023-04-29T04:47:35.291Z,1084.00
2023-04-29T04:48:35.245Z,1120.00
2023-04-29T04:49:35.254Z,1176.00
2023-04-29T04:50:35.261Z,1236.00
2023-04-29T04:51:35.214Z,1260.00
2023-04-29T04:52:35.200Z,1232.00
2023-04-29T04:53:35.240Z,1200.00
2023-04-29T04:54:35.179Z,1168.00
2023-04-29T04:55:35.284Z,1140.00
2023-04-29T04:56:35.176Z,1148.00
2023-04-29T04:57:35.154Z,1176.00
2023-04-29T04:58:35.138Z,1232.00
2023-04-29T04:59:35.153Z,1296.00
2023-04-29T05:00:35.108Z,1352.00
2023-04-29T05:01:35.154Z,1412.00
2023-04-29T05:02:35.205Z,1460.00
2023-04-29T05:03:35.181Z,1496.00
2023-04-29T05:04:35.071Z,1544.00
2023-04-29T05:05:35.060Z,1600.00
2023-04-29T05:06:35.050Z,1648.00
2023-04-29T05:07:35.053Z,1672.00
2023-04-29T05:08:35.048Z,1700.00
2023-04-29T05:09:35.021Z,1748.00
2023-04-29T05:10:35.005Z,1828.00
2023-04-29T05:11:35.023Z,1896.00
2023-04-29T05:12:35.010Z,1944.00
2023-04-29T05:13:34.983Z,1972.00
2023-04-29T05:14:34.979Z,1996.00
2023-04-29T05:15:34.955Z,1988.00
2023-04-29T05:16:34.959Z,1984.00
2023-04-29T05:17:34.947Z,2008.00
2023-04-29T05:18:34.930Z,2060.00
2023-04-29T05:19:34.910Z,2136.00
2023-04-29T05:20:34.915Z,2208.00
2023-04-29T05:21:34.895Z,2280.00
2023-04-29T05:22:34.887Z,2336.00
2023-04-29T05:23:34.868Z,2428.00
2023-04-29T05:24:34.873Z,2564.00
2023-04-29T05:25:34.849Z,2684.00
2023-04-29T05:26:34.918Z,2760.00
2023-04-29T05:27:34.928Z,2876.00
2023-04-29T05:28:34.813Z,3108.00
2023-04-29T05:29:34.813Z,3460.00
2023-04-29T05:30:34.994Z,3780.00
2023-04-29T05:31:34.779Z,3952.00
2023-04-29T05:32:34.816Z,4040.00
2023-04-29T05:33:34.771Z,4136.00
2023-04-29T05:34:34.750Z,4276.00
2023-04-29T05:35:34.751Z,4460.00
2023-04-29T05:36:34.726Z,4572.00
2023-04-29T05:37:34.714Z,4620.00
2023-04-29T05:38:34.762Z,4680.00
2023-04-29T05:39:34.693Z,4788.00
2023-04-29T05:40:34.679Z,4936.00
2023-04-29T05:41:34.679Z,5028.00
2023-04-29T05:42:34.662Z,5036.00
2023-04-29T05:43:36.191Z,4984.00
2023-04-29T05:44:34.675Z,4972.00
2023-04-29T05:45:34.666Z,5016.00
2023-04-29T05:46:34.650Z,5104.00
2023-04-29T05:47:34.620Z,5224.00
2023-04-29T05:48:34.603Z,5408.00
2023-04-29T05:49:34.596Z,5640.00
2023-04-29T05:50:34.607Z,5908.00
2023-04-29T05:51:34.568Z,6176.00
2023-04-29T05:52:34.548Z,6480.00
2023-04-29T05:53:34.542Z,6788.00
2023-04-29T05:54:34.534Z,7068.00
2023-04-29T05:55:34.519Z,7368.00
2023-04-29T05:56:34.540Z,7732.00
2023-04-29T05:57:34.497Z,8260.00
2023-04-29T05:58:34.484Z,8940.00
2023-04-29T05:59:34.581Z,9692.00
2023-04-29T06:00:34.464Z,10416.00
2023-04-29T06:01:34.492Z,10700.00
2023-04-29T06:02:37.422Z,10560.00
2023-04-29T06:03:35.578Z,10396.00
2023-04-29T06:04:34.643Z,10192.00
2023-04-29T06:05:34.803Z,9828.00
2023-04-29T06:06:34.523Z,9508.00
2023-04-29T06:07:34.387Z,9432.00
2023-04-29T06:08:34.389Z,9600.00
2023-04-29T06:09:34.371Z,10040.00
2023-04-29T06:10:34.360Z,10680.00
2023-04-29T06:11:34.361Z,11292.00
2023-04-29T06:12:34.343Z,12140.00
2023-04-29T06:13:34.341Z,13220.00
2023-04-29T06:14:34.319Z,14436.00
2023-04-29T06:15:34.326Z,15692.00
2023-04-29T06:16:34.400Z,16532.00
2023-04-29T06:17:34.314Z,17248.00
2023-04-29T06:18:34.292Z,17440.00
2023-04-29T06:19:34.267Z,17856.00
2023-04-29T06:20:36.842Z,18112.00
2023-04-29T06:21:34.243Z,18144.00
2023-04-29T06:22:34.221Z,18368.00
2023-04-29T06:23:34.259Z,18496.00
2023-04-29T06:24:34.213Z,18592.00
2023-04-29T06:25:34.191Z,18752.00
2023-04-29T06:26:41.702Z,18944.00
2023-04-29T06:27:34.177Z,18912.00
2023-04-29T06:28:41.684Z,19168.00
2023-04-29T06:29:34.148Z,19648.00
2023-04-29T06:30:34.147Z,20512.00
2023-04-29T06:31:34.244Z,21472.00
2023-04-29T06:32:34.176Z,22880.00
2023-04-29T06:33:34.124Z,25056.00
2023-04-29T06:34:34.093Z,25664.00
2023-04-29T06:35:34.103Z,25088.00
2023-04-29T06:36:34.071Z,24352.00
2023-04-29T06:37:41.586Z,23232.00
2023-04-29T06:38:34.047Z,22912.00
2023-04-29T06:39:41.574Z,23008.00
2023-04-29T06:40:34.055Z,23200.00
2023-04-29T06:41:34.015Z,23520.00
2023-04-29T06:42:41.535Z,23744.00
2023-04-29T06:43:33.994Z,22944.00
2023-04-29T06:44:41.497Z,22528.00
2023-04-29T06:45:41.508Z,22080.00
2023-04-29T06:46:33.988Z,22240.00
2023-04-29T06:47:33.980Z,22656.00
2023-04-29T06:48:33.949Z,23712.00
2023-04-29T06:49:33.940Z,25792.00
2023-04-29T06:50:41.432Z,28096.00
2023-04-29T06:51:33.918Z,29568.00
2023-04-29T06:52:33.892Z,30112.00
2023-04-29T06:53:33.884Z,31424.00
2023-04-29T06:54:33.871Z,28480.00
2023-04-29T06:55:33.864Z,29184.00
2023-04-29T06:56:33.856Z,32896.00
2023-04-29T06:57:33.871Z,40992.00
2023-04-29T06:58:33.831Z,33280.00
2023-04-29T06:59:33.832Z,43584.00
2023-04-29T07:00:33.822Z,39744.00
2023-04-29T07:01:33.825Z,51968.00
2023-04-29T07:02:33.861Z,35424.00
2023-04-29T07:03:33.898Z,33888.00
2023-04-29T07:04:33.794Z,34240.00
2023-04-29T07:05:33.778Z,37408.00
2023-04-29T07:06:33.748Z,42592.00
2023-04-29T07:07:33.736Z,38848.00
2023-04-29T07:08:33.736Z,47776.00
2023-04-29T07:09:33.717Z,85056.00
2023-04-29T07:10:33.702Z,95840.00
2023-04-29T07:11:33.713Z,71776.00
2023-04-29T07:12:33.682Z,46976.00
2023-04-29T07:13:33.684Z,63968.00
2023-04-29T07:14:33.672Z,48928.00
2023-04-29T07:15:33.649Z,49280.00
2023-04-29T07:16:33.646Z,92512.00
2023-04-29T07:17:33.686Z,67328.00
2023-04-29T07:18:33.622Z,71136.00
2023-04-29T07:19:33.628Z,61152.00
2023-04-29T07:20:33.605Z,53568.00
2023-04-29T07:21:33.587Z,89792.00
2023-04-29T07:22:33.581Z,47904.00
2023-04-29T07:23:33.570Z,55936.00
2023-04-29T07:24:33.547Z,57440.00
2023-04-29T07:25:33.542Z,46400.00
2023-04-29T07:26:33.544Z,48992.00
2023-04-29T07:27:33.549Z,42816.00
2023-04-29T07:28:33.501Z,37792.00
2023-04-29T07:29:33.520Z,37056.00
2023-04-29T07:30:33.499Z,37024.00
2023-04-29T07:31:34.380Z,55136.00
2023-04-29T07:32:33.480Z,41824.00
2023-04-29T07:33:33.452Z,38752.00
2023-04-29T07:34:33.438Z,39104.00
2023-04-29T07:35:33.451Z,40320.00
2023-04-29T07:36:33.415Z,37536.00
2023-04-29T07:37:33.420Z,38208.00
2023-04-29T07:38:33.393Z,37088.00
2023-04-29T07:39:33.384Z,35776.00
2023-04-29T07:40:33.370Z,39040.00
2023-04-29T07:41:33.429Z,36704.00
2023-04-29T07:42:33.348Z,36000.00
2023-04-29T07:43:33.354Z,36256.00
2023-04-29T07:44:33.327Z,38752.00
2023-04-29T07:45:33.322Z,58432.00
2023-04-29T07:46:33.331Z,36448.00
2023-04-29T07:47:33.340Z,42400.00
2023-04-29T07:48:33.302Z,46208.00
2023-04-29T07:49:33.275Z,41696.00
2023-04-29T07:50:33.260Z,35488.00
2023-04-29T07:51:33.277Z,33408.00
2023-04-29T07:52:33.239Z,35648.00
2023-04-29T07:53:33.243Z,36832.00
2023-04-29T07:54:33.228Z,38112.00
2023-04-29T07:55:33.213Z,39008.00
2023-04-29T07:56:33.195Z,42816.00
2023-04-29T07:57:33.209Z,36224.00
2023-04-29T07:58:33.171Z,58912.00
2023-04-29T07:59:33.186Z,82400.00
2023-04-29T08:00:33.150Z,90976.00
2023-04-29T08:01:33.144Z,73408.00
2023-04-29T08:02:33.189Z,64640.00
2023-04-29T08:03:33.305Z,42816.00
2023-04-29T08:04:33.349Z,47712.00
2023-04-29T08:05:33.772Z,58848.00
2023-04-29T08:06:33.090Z,45312.00
2023-04-29T08:07:33.092Z,49792.00
2023-04-29T08:08:33.068Z,29728.00
2023-04-29T08:09:33.065Z,23712.00
2023-04-29T08:10:33.045Z,25696.00
2023-04-29T08:11:33.060Z,27040.00
2023-04-29T08:12:33.035Z,38336.00
2023-04-29T08:13:33.014Z,34912.00
2023-04-29T08:14:33.018Z,45120.00
2023-04-29T08:15:33.001Z,47936.00
2023-04-29T08:16:33.022Z,80800.00
2023-04-29T08:17:33.007Z,102304.00
2023-04-29T08:18:32.957Z,113152.00
2023-04-29T08:19:32.994Z,109280.00
2023-04-29T08:20:32.953Z,68576.00
2023-04-29T08:21:32.922Z,106464.00
2023-04-29T08:22:32.912Z,87520.00
2023-04-29T08:23:32.932Z,87168.00
2023-04-29T08:24:32.904Z,72256.00
2023-04-29T08:25:32.907Z,65408.00
2023-04-29T08:26:32.917Z,75552.00
2023-04-29T08:27:32.870Z,90688.00
2023-04-29T08:28:32.882Z,115424.00
2023-04-29T08:29:32.844Z,112000.00
2023-04-29T08:30:32.827Z,108288.00
2023-04-29T08:31:32.843Z,128480.00
2023-04-29T08:32:32.857Z,129248.00
2023-04-29T08:33:32.813Z,134752.00
2023-04-29T08:34:32.804Z,91744.00
2023-04-29T08:35:32.783Z,119232.00
2023-04-29T08:36:32.765Z,71424.00
2023-04-29T08:37:32.765Z,121344.00
2023-04-29T08:38:32.745Z,113664.00
2023-04-29T08:39:32.769Z,69568.00
2023-04-29T08:40:32.744Z,103424.00
2023-04-29T08:41:32.719Z,86656.00
2023-04-29T08:42:32.699Z,51584.00
2023-04-29T08:43:32.685Z,87104.00
2023-04-29T08:44:32.678Z,107488.00
2023-04-29T08:45:32.726Z,59680.00
2023-04-29T08:46:32.680Z,51136.00
2023-04-29T08:47:32.715Z,48096.00
2023-04-29T08:48:32.810Z,54304.00
2023-04-29T08:49:32.619Z,38688.00
2023-04-29T08:50:32.617Z,42272.00
2023-04-29T08:51:32.598Z,55744.00
2023-04-29T08:52:32.610Z,44832.00
2023-04-29T08:53:32.588Z,44576.00
2023-04-29T08:54:32.579Z,54944.00
2023-04-29T08:55:32.640Z,110880.00
2023-04-29T08:56:32.551Z,118112.00
2023-04-29T08:57:32.531Z,77184.00
2023-04-29T08:58:32.540Z,62368.00
2023-04-29T08:59:32.527Z,132384.00
2023-04-29T09:00:32.531Z,127904.00
2023-04-29T09:01:32.560Z,45664.00
2023-04-29T09:02:32.516Z,48000.00
2023-04-29T09:03:32.541Z,83104.00
2023-04-29T09:04:32.499Z,48416.00
2023-04-29T09:05:32.460Z,53248.00
2023-04-29T09:06:32.438Z,90272.00
2023-04-29T09:07:32.436Z,98496.00
2023-04-29T09:08:32.413Z,131072.00
2023-04-29T09:09:32.413Z,141088.00
2023-04-29T09:10:32.415Z,138848.00
2023-04-29T09:11:32.400Z,146080.00
2023-04-29T09:12:32.397Z,135008.00
2023-04-29T09:13:32.361Z,151968.00
2023-04-29T09:14:32.349Z,147488.00
2023-04-29T09:15:32.339Z,144800.00
2023-04-29T09:16:32.372Z,139552.00
2023-04-29T09:17:32.363Z,135904.00
2023-04-29T09:18:32.313Z,127360.00
2023-04-29T09:19:32.299Z,125088.00
2023-04-29T09:20:32.298Z,124896.00
2023-04-29T09:21:32.305Z,134272.00
2023-04-29T09:22:32.275Z,133696.00
2023-04-29T09:23:32.263Z,138144.00
2023-04-29T09:24:32.238Z,147008.00
2023-04-29T09:25:32.243Z,139872.00
2023-04-29T09:26:32.219Z,138848.00
2023-04-29T09:27:32.231Z,137312.00
2023-04-29T09:28:32.222Z,137344.00
2023-04-29T09:29:32.181Z,122048.00
2023-04-29T09:30:32.179Z,136352.00
2023-04-29T09:31:32.199Z,140480.00
2023-04-29T09:32:32.208Z,116736.00
2023-04-29T09:33:32.151Z,68608.00
2023-04-29T09:34:32.140Z,93696.00
2023-04-29T09:35:32.121Z,66816.00
2023-04-29T09:36:32.112Z,126880.00
2023-04-29T09:37:32.099Z,86336.00
2023-04-29T09:38:32.101Z,105920.00
2023-04-29T09:39:32.077Z,116128.00
2023-04-29T09:40:32.084Z,87840.00
2023-04-29T09:41:32.055Z,133152.00
2023-04-29T09:42:32.050Z,75008.00
2023-04-29T09:43:32.106Z,89728.00
2023-04-29T09:44:34.192Z,123456.00
2023-04-29T09:45:32.013Z,117408.00
2023-04-29T09:46:32.088Z,124832.00
2023-04-29T09:47:32.084Z,132064.00
2023-04-29T09:48:31.989Z,130176.00
2023-04-29T09:49:31.984Z,129472.00
2023-04-29T09:50:31.962Z,137632.00
2023-04-29T09:51:31.948Z,139264.00
2023-04-29T09:52:31.951Z,132608.00
2023-04-29T09:53:32.073Z,131168.00
2023-04-29T09:54:31.931Z,127040.00
2023-04-29T09:55:31.905Z,122080.00
2023-04-29T09:56:31.899Z,125504.00
2023-04-29T09:57:31.890Z,136352.00
2023-04-29T09:58:31.887Z,130336.00
2023-04-29T09:59:31.891Z,128704.00
2023-04-29T10:00:31.857Z,140224.00
2023-04-29T10:01:31.842Z,130400.00
2023-04-29T10:02:31.876Z,137088.00
2023-04-29T10:03:31.925Z,137216.00
2023-04-29T10:04:31.848Z,130400.00
2023-04-29T10:05:31.800Z,141376.00
2023-04-29T10:06:31.790Z,136736.00
2023-04-29T10:07:31.774Z,134400.00
2023-04-29T10:08:31.779Z,127392.00
2023-04-29T10:09:31.753Z,154272.00
2023-04-29T10:10:31.759Z,146688.00
2023-04-29T10:11:31.740Z,132960.00
2023-04-29T10:12:31.723Z,126432.00
2023-04-29T10:13:31.706Z,127808.00
2023-04-29T10:14:31.699Z,135072.00
2023-04-29T10:15:31.717Z,50400.00
2023-04-29T10:16:31.728Z,35872.00
2023-04-29T10:17:31.664Z,32640.00
2023-04-29T10:18:31.684Z,30560.00
2023-04-29T10:19:31.644Z,31744.00
2023-04-29T10:20:31.651Z,32480.00
2023-04-29T10:21:31.881Z,35264.00
2023-04-29T10:22:31.631Z,36160.00
2023-04-29T10:23:31.597Z,37056.00
2023-04-29T10:24:31.591Z,38560.00
2023-04-29T10:25:31.597Z,69120.00
2023-04-29T10:26:31.569Z,42528.00
2023-04-29T10:27:31.560Z,56608.00
2023-04-29T10:28:31.577Z,40864.00
2023-04-29T10:29:31.535Z,37088.00
2023-04-29T10:30:31.526Z,35296.00
2023-04-29T10:31:31.568Z,36096.00
2023-04-29T10:32:39.876Z,36480.00
2023-04-29T10:33:32.534Z,37120.00
2023-04-29T10:34:31.497Z,40224.00
2023-04-29T10:35:31.468Z,136896.00
2023-04-29T10:36:31.549Z,137632.00
2023-04-29T10:37:31.448Z,127840.00
2023-04-29T10:38:31.447Z,128992.00
2023-04-29T10:39:31.440Z,93216.00
2023-04-29T10:40:31.450Z,137952.00
2023-04-29T10:41:31.401Z,146720.00
2023-04-29T10:42:31.395Z,96192.00
2023-04-29T10:43:31.384Z,62496.00
2023-04-29T10:44:31.388Z,140352.00
2023-04-29T10:45:31.390Z,119168.00
2023-04-29T10:46:31.386Z,68224.00
2023-04-29T10:47:31.388Z,33248.00
2023-04-29T10:48:31.333Z,29760.00
2023-04-29T10:49:31.318Z,29472.00
2023-04-29T10:50:31.317Z,26880.00
2023-04-29T10:51:31.315Z,25760.00
2023-04-29T10:52:31.304Z,26016.00
2023-04-29T10:53:31.286Z,27296.00
2023-04-29T10:54:31.264Z,28288.00
2023-04-29T10:55:31.262Z,30048.00
2023-04-29T10:56:31.257Z,32384.00
2023-04-29T10:57:31.229Z,34016.00
2023-04-29T10:58:31.233Z,36512.00
2023-04-29T10:59:31.212Z,38944.00
2023-04-29T11:00:31.199Z,46240.00
2023-04-29T11:01:31.282Z,87392.00
2023-04-29T11:02:31.209Z,142656.00
2023-04-29T11:03:31.330Z,39296.00
2023-04-29T11:04:31.331Z,42976.00
2023-04-29T11:05:31.158Z,38016.00
2023-04-29T11:06:31.154Z,38688.00
2023-04-29T11:07:31.150Z,37760.00
2023-04-29T11:08:31.142Z,38528.00
2023-04-29T11:09:31.101Z,34144.00
2023-04-29T11:10:31.109Z,30272.00
2023-04-29T11:11:31.098Z,29760.00
2023-04-29T11:12:31.088Z,27808.00
2023-04-29T11:13:31.071Z,25600.00
2023-04-29T11:14:31.069Z,24512.00
2023-04-29T11:15:31.038Z,23808.00
2023-04-29T11:16:31.096Z,22912.00
2023-04-29T11:17:31.069Z,22624.00
2023-04-29T11:18:31.014Z,22112.00
2023-04-29T11:19:31.057Z,21696.00
2023-04-29T11:20:30.989Z,22112.00
2023-04-29T11:21:31.001Z,22784.00
2023-04-29T11:22:31.065Z,23392.00
2023-04-29T11:23:30.975Z,24096.00
2023-04-29T11:24:30.960Z,24864.00
2023-04-29T11:25:30.954Z,26304.00
2023-04-29T11:26:30.929Z,27936.00
2023-04-29T11:27:30.932Z,28864.00
2023-04-29T11:28:30.913Z,29984.00
2023-04-29T11:29:30.904Z,31776.00
2023-04-29T11:30:30.903Z,45664.00
2023-04-29T11:31:30.922Z,121856.00
2023-04-29T11:32:31.138Z,121952.00
2023-04-29T11:33:30.897Z,102400.00
2023-04-29T11:34:30.864Z,81280.00
2023-04-29T11:35:30.938Z,88224.00
2023-04-29T11:36:30.885Z,72224.00
2023-04-29T11:37:30.874Z,88800.00
2023-04-29T11:38:30.917Z,120384.00
2023-04-29T11:39:30.899Z,98752.00
2023-04-29T11:40:30.795Z,112352.00
2023-04-29T11:41:30.766Z,30848.00
2023-04-29T11:42:30.752Z,32096.00
2023-04-29T11:43:30.739Z,44544.00
2023-04-29T11:44:30.747Z,89792.00
2023-04-29T11:45:30.717Z,146272.00
2023-04-29T11:46:30.860Z,43584.00
2023-04-29T11:47:30.856Z,41856.00
2023-04-29T11:48:30.690Z,36384.00
2023-04-29T11:49:30.699Z,40096.00
2023-04-29T11:50:30.666Z,141120.00
2023-04-29T11:51:30.683Z,86976.00
2023-04-29T11:52:30.694Z,131296.00
2023-04-29T11:53:30.633Z,88224.00
2023-04-29T11:54:30.634Z,52320.00
2023-04-29T11:55:30.611Z,52832.00
2023-04-29T11:56:30.608Z,50400.00
2023-04-29T11:57:30.589Z,46720.00
2023-04-29T11:58:30.622Z,140576.00
2023-04-29T11:59:30.582Z,140224.00
2023-04-29T12:00:30.559Z,146304.00
2023-04-29T12:01:30.545Z,87520.00
2023-04-29T12:02:30.715Z,105056.00
2023-04-29T12:03:30.636Z,112864.00
2023-04-29T12:04:30.720Z,125952.00
2023-04-29T12:05:30.536Z,120320.00
2023-04-29T12:06:30.661Z,125760.00
2023-04-29T12:07:30.507Z,118720.00
2023-04-29T12:08:30.472Z,125920.00
2023-04-29T12:09:30.477Z,122208.00
2023-04-29T12:10:30.455Z,73792.00
2023-04-29T12:11:30.456Z,41952.00
2023-04-29T12:12:30.432Z,44928.00
2023-04-29T12:13:30.449Z,41184.00
2023-04-29T12:14:30.411Z,38176.00